createdAt,value
2023-10-21T00:00:51.685Z,3.22
2023-10-21T00:03:20.980Z,3.10
2023-10-21T00:05:47.810Z,3.00
2023-10-21T00:08:14.511Z,3.35
2023-10-21T00:10:41.372Z,3.80
2023-10-21T00:13:08.193Z,3.78
2023-10-21T00:15:35.645Z,3.38
2023-10-21T00:18:02.776Z,3.58
2023-10-21T00:20:29.494Z,3.80
2023-10-21T00:22:56.871Z,3.42
2023-10-21T00:25:25.115Z,3.33
2023-10-21T00:27:51.801Z,3.97
2023-10-21T00:30:18.551Z,3.75
2023-10-21T00:32:45.443Z,3.80
2023-10-21T00:35:12.233Z,3.92
2023-10-21T00:37:41.962Z,3.90
2023-10-21T00:40:09.451Z,4.55
2023-10-21T00:42:36.132Z,3.67
2023-10-21T00:45:05.212Z,3.13
2023-10-21T00:47:32.089Z,3.55
2023-10-21T00:49:58.872Z,3.28
2023-10-21T00:52:26.548Z,3.40
2023-10-21T00:54:58.280Z,3.60
2023-10-21T00:57:24.949Z,3.17
2023-10-21T00:59:51.718Z,3.42
2023-10-21T01:02:18.493Z,3.63
2023-10-21T01:04:45.186Z,3.47
2023-10-21T01:07:18.350Z,3.50
2023-10-21T01:09:45.054Z,3.30
2023-10-21T01:12:11.764Z,3.80
2023-10-21T01:14:39.042Z,3.88
2023-10-21T01:17:05.886Z,3.70
2023-10-21T01:19:33.446Z,3.20
2023-10-21T01:22:00.394Z,3.35
2023-10-21T01:24:27.055Z,3.63
2023-10-21T01:26:53.722Z,3.25
2023-10-21T01:29:20.439Z,3.63
2023-10-21T01:31:47.094Z,3.38
2023-10-21T01:34:14.367Z,4.03
2023-10-21T01:36:41.130Z,3.80
2023-10-21T01:39:11.876Z,3.65
2023-10-21T01:41:39.915Z,3.97
2023-10-21T01:44:06.898Z,3.83
2023-10-21T01:46:33.602Z,4.00
2023-10-21T01:49:00.365Z,3.85
2023-10-21T01:51:27.151Z,3.42
2023-10-21T01:53:53.825Z,3.70
2023-10-21T01:56:20.555Z,3.60
2023-10-21T01:58:47.392Z,3.75
2023-10-21T02:01:14.057Z,3.78
2023-10-21T02:03:43.206Z,3.58
2023-10-21T02:06:10.613Z,3.90
2023-10-21T02:08:37.501Z,4.10
2023-10-21T02:11:04.235Z,4.10
2023-10-21T02:13:30.961Z,6.15
2023-10-21T02:15:58.896Z,3.60
2023-10-21T02:18:25.701Z,3.77
2023-10-21T02:20:52.541Z,3.72
2023-10-21T02:23:19.237Z,3.50
2023-10-21T02:25:45.957Z,4.15
2023-10-21T02:28:12.690Z,3.78
2023-10-21T02:30:39.395Z,3.95
2023-10-21T02:33:06.119Z,4.03
2023-10-21T02:35:35.713Z,4.40
2023-10-21T02:38:02.418Z,3.85
2023-10-21T02:40:29.159Z,3.50
2023-10-21T02:42:57.014Z,3.47
2023-10-21T02:45:24.613Z,3.70
2023-10-21T02:47:51.996Z,3.92
2023-10-21T02:50:18.950Z,3.35
2023-10-21T02:52:46.025Z,3.45
2023-10-21T02:55:13.105Z,3.20
2023-10-21T02:57:39.893Z,3.58
2023-10-21T03:00:11.834Z,3.50
2023-10-21T03:02:39.597Z,3.50
2023-10-21T03:05:06.751Z,3.67
2023-10-21T03:07:33.457Z,3.50
2023-10-21T03:10:01.103Z,3.17
2023-10-21T03:12:28.204Z,3.10
2023-10-21T03:14:56.041Z,3.35
2023-10-21T03:17:23.056Z,3.67
2023-10-21T03:19:49.866Z,3.58
2023-10-21T03:22:16.881Z,3.22
2023-10-21T03:24:43.563Z,3.80
2023-10-21T03:27:10.381Z,3.35
2023-10-21T03:29:37.310Z,3.40
2023-10-21T03:32:04.529Z,3.47
2023-10-21T03:34:33.819Z,3.38
2023-10-21T03:37:01.462Z,3.42
2023-10-21T03:39:28.328Z,3.47
2023-10-21T03:41:55.130Z,3.08
2023-10-21T03:44:21.903Z,3.05
2023-10-21T03:46:48.657Z,3.00
2023-10-21T03:49:15.423Z,3.47
2023-10-21T03:51:42.119Z,2.75
2023-10-21T03:54:08.834Z,2.72
2023-10-21T03:56:35.540Z,2.40
2023-10-21T03:59:02.274Z,2.70
2023-10-21T04:01:29.019Z,2.75
2023-10-21T04:03:55.848Z,2.28
2023-10-21T04:06:22.841Z,2.45
2023-10-21T04:08:49.517Z,2.45
2023-10-21T04:11:16.673Z,2.45
2023-10-21T04:13:43.408Z,2.30
2023-10-21T04:16:10.231Z,2.45
2023-10-21T04:18:37.582Z,2.50
2023-10-21T04:21:04.423Z,2.50
2023-10-21T04:23:31.297Z,2.10
2023-10-21T04:25:58.039Z,2.20
2023-10-21T04:28:24.760Z,2.15
2023-10-21T04:30:51.572Z,2.28
2023-10-21T04:33:18.410Z,2.20
2023-10-21T04:35:45.160Z,2.45
2023-10-21T04:38:12.043Z,2.53
2023-10-21T04:40:38.737Z,2.20
2023-10-21T04:43:05.924Z,2.10
2023-10-21T04:45:32.817Z,1.70
2023-10-21T04:48:00.654Z,2.00
2023-10-21T04:50:28.639Z,1.88
2023-10-21T04:52:55.756Z,2.00
2023-10-21T04:55:22.507Z,2.00
2023-10-21T04:57:49.393Z,2.10
2023-10-21T05:00:16.280Z,2.40
2023-10-21T05:02:43.086Z,2.25
2023-10-21T05:05:10.901Z,2.10
2023-10-21T05:07:37.669Z,2.72
2023-10-21T05:10:05.940Z,2.55
2023-10-21T05:12:32.652Z,2.70
2023-10-21T05:14:59.422Z,2.47
2023-10-21T05:17:26.201Z,2.53
2023-10-21T05:19:52.928Z,2.90
2023-10-21T05:22:19.598Z,4.00
2023-10-21T05:24:46.303Z,4.10
2023-10-21T05:27:13.093Z,6.22
2023-10-21T05:29:39.877Z,11.88
2023-10-21T05:32:06.992Z,14.05
2023-10-21T05:34:33.709Z,9.70
2023-10-21T05:37:00.456Z,7.75
2023-10-21T05:39:27.171Z,5.03
2023-10-21T05:41:54.000Z,5.30
2023-10-21T05:44:30.251Z,4.45
2023-10-21T05:47:04.277Z,3.83
2023-10-21T05:49:30.977Z,3.55
2023-10-21T05:51:57.691Z,3.78
2023-10-21T05:54:24.996Z,3.45
2023-10-21T05:56:51.727Z,3.65
2023-10-21T05:59:18.505Z,3.88
2023-10-21T06:01:45.178Z,5.25
2023-10-21T06:04:12.036Z,5.10
2023-10-21T06:06:38.826Z,4.00
2023-10-21T06:09:05.690Z,4.93
2023-10-21T06:11:32.448Z,4.70
2023-10-21T06:13:59.110Z,4.28
2023-10-21T06:16:26.672Z,3.85
2023-10-21T06:18:53.374Z,3.90
2023-10-21T06:21:20.271Z,5.00
2023-10-21T06:23:46.955Z,4.35
2023-10-21T06:26:13.663Z,5.00
2023-10-21T06:28:40.466Z,5.10
2023-10-21T06:31:07.329Z,5.57
2023-10-21T06:33:35.541Z,5.53
2023-10-21T06:36:02.630Z,5.13
2023-10-21T06:38:29.438Z,5.53
2023-10-21T06:41:11.124Z,4.85
2023-10-21T06:43:41.952Z,11.43
2023-10-21T06:46:08.975Z,17.15
2023-10-21T06:48:35.924Z,6.25
2023-10-21T06:51:02.760Z,6.82
2023-10-21T06:53:29.547Z,7.43
2023-10-21T06:55:56.269Z,6.47
2023-10-21T06:58:23.096Z,6.70
2023-10-21T07:00:50.161Z,6.78
2023-10-21T07:05:45.069Z,10.57
2023-10-21T07:08:12.912Z,8.45
2023-10-21T07:10:40.362Z,3.30
2023-10-21T07:13:07.052Z,5.00
2023-10-21T07:15:33.824Z,8.10
2023-10-21T07:18:00.989Z,5.30
2023-10-21T07:20:27.979Z,5.07
2023-10-21T07:22:55.711Z,4.18
2023-10-21T07:25:25.284Z,5.75
2023-10-21T07:27:52.883Z,3.58
2023-10-21T07:30:20.535Z,4.55
2023-10-21T07:32:48.336Z,6.43
2023-10-21T07:35:15.964Z,3.50
2023-10-21T07:37:43.068Z,5.45
2023-10-21T07:40:11.377Z,2.88
2023-10-21T07:42:38.663Z,4.45
2023-10-21T07:45:06.441Z,4.85
2023-10-21T07:47:37.980Z,4.93
2023-10-21T07:50:08.747Z,5.75
2023-10-21T07:52:37.701Z,5.25
2023-10-21T07:57:34.806Z,2.78
2023-10-21T08:00:02.355Z,2.20
2023-10-21T08:02:29.276Z,2.30
2023-10-21T08:04:56.754Z,2.17
2023-10-21T08:07:23.426Z,1.85
2023-10-21T08:09:50.659Z,2.47
2023-10-21T08:12:17.489Z,1.98
2023-10-21T08:14:44.442Z,2.70
2023-10-21T08:17:11.253Z,2.40
2023-10-21T08:19:42.609Z,2.13
2023-10-21T08:22:15.709Z,1.95
2023-10-21T08:24:42.754Z,1.98
2023-10-21T08:27:09.627Z,1.70
2023-10-21T08:29:36.447Z,1.60
2023-10-21T08:32:03.176Z,1.45
2023-10-21T08:34:29.907Z,1.50
2023-10-21T08:36:56.584Z,1.42
2023-10-21T08:39:23.320Z,1.23
2023-10-21T08:41:51.859Z,1.45
2023-10-21T08:44:21.699Z,1.40
2023-10-21T08:46:50.883Z,1.40
2023-10-21T08:49:21.037Z,2.22
2023-10-21T08:51:50.737Z,1.40
2023-10-21T08:54:19.112Z,1.60
2023-10-21T08:56:46.250Z,1.38
2023-10-21T08:59:19.232Z,1.60
2023-10-21T09:01:49.960Z,1.30
2023-10-21T09:04:20.513Z,1.70
2023-10-21T09:06:59.327Z,2.00
2023-10-21T09:09:28.917Z,1.40
2023-10-21T09:12:12.879Z,1.45
2023-10-21T09:14:57.187Z,2.65
2023-10-21T09:17:49.866Z,1.40
2023-10-21T09:20:31.384Z,1.23
2023-10-21T09:23:04.156Z,2.30
2023-10-21T09:25:30.965Z,1.50
2023-10-21T09:27:57.757Z,1.20
2023-10-21T09:30:26.533Z,1.33
2023-10-21T09:33:05.714Z,1.30
2023-10-21T09:35:34.534Z,1.00
2023-10-21T09:38:21.408Z,1.27
2023-10-21T09:40:48.912Z,1.10
2023-10-21T09:43:15.884Z,1.30
2023-10-21T09:45:44.603Z,1.00
2023-10-21T09:48:13.432Z,1.00
2023-10-21T09:53:16.675Z,1.13
2023-10-21T09:55:43.361Z,1.10
2023-10-21T09:58:10.690Z,1.10
2023-10-21T10:00:38.433Z,1.17
2023-10-21T10:03:06.758Z,1.23
2023-10-21T10:05:34.426Z,1.40
2023-10-21T10:08:01.470Z,1.42
2023-10-21T10:10:29.265Z,1.23
2023-10-21T10:13:16.034Z,1.27
2023-10-21T10:15:43.970Z,1.05
2023-10-21T10:18:16.829Z,1.20
2023-10-21T10:20:56.054Z,1.20
2023-10-21T10:23:26.201Z,1.00
2023-10-21T10:25:53.523Z,2.53
2023-10-21T10:28:22.662Z,2.40
2023-10-21T10:30:55.103Z,1.30
2023-10-21T10:33:35.276Z,1.30
2023-10-21T10:36:02.359Z,1.20
2023-10-21T10:38:44.183Z,1.13
2023-10-21T10:41:29.692Z,1.45
2023-10-21T10:44:03.408Z,1.17
2023-10-21T10:46:32.111Z,1.13
2023-10-21T10:51:32.445Z,1.30
2023-10-21T10:54:02.259Z,1.25
2023-10-21T10:56:45.468Z,1.52
2023-10-21T10:59:15.987Z,1.10
2023-10-21T11:01:43.267Z,1.27
2023-10-21T11:04:10.321Z,1.20
2023-10-21T11:06:41.247Z,1.25
2023-10-21T11:09:09.995Z,1.30
2023-10-21T11:14:38.259Z,1.40
2023-10-21T11:17:06.115Z,1.88
2023-10-21T11:19:34.453Z,1.40
2023-10-21T11:22:01.473Z,1.35
2023-10-21T11:24:28.218Z,1.73
2023-10-21T11:26:55.756Z,1.60
2023-10-21T11:29:24.329Z,1.92
2023-10-21T11:34:21.179Z,1.35
2023-10-21T11:36:50.185Z,1.30
2023-10-21T11:39:18.413Z,1.25
2023-10-21T11:41:46.507Z,1.80
2023-10-21T11:44:33.607Z,1.50
2023-10-21T11:47:05.521Z,1.50
2023-10-21T11:49:34.684Z,1.60
2023-10-21T11:52:01.705Z,1.40
2023-10-21T11:54:41.553Z,1.20
2023-10-21T11:57:11.377Z,1.70
2023-10-21T11:59:57.679Z,1.20
2023-10-21T12:02:36.395Z,1.23
2023-10-21T12:05:31.904Z,1.27
2023-10-21T12:08:17.039Z,1.30
2023-10-21T12:11:02.074Z,1.30
2023-10-21T12:13:40.610Z,1.98
2023-10-21T12:19:08.082Z,20.85
2023-10-21T12:21:53.250Z,2.83
2023-10-21T12:24:20.104Z,1.70
2023-10-21T12:26:58.200Z,1.40
2023-10-21T12:29:30.905Z,1.40
2023-10-21T12:32:16.640Z,1.58
2023-10-21T12:34:54.525Z,1.15
2023-10-21T12:37:27.612Z,1.90
2023-10-21T12:39:59.066Z,2.05
2023-10-21T12:42:30.372Z,1.52
2023-10-21T12:44:58.904Z,4.10
2023-10-21T12:47:26.437Z,1.73
2023-10-21T12:49:57.164Z,1.50
2023-10-21T12:52:25.042Z,1.75
2023-10-21T12:54:53.258Z,1.47
2023-10-21T12:57:20.405Z,1.30
2023-10-21T12:59:47.600Z,1.33
2023-10-21T13:02:14.396Z,1.20
2023-10-21T13:04:44.187Z,1.20
2023-10-21T13:07:10.986Z,1.50
2023-10-21T13:09:41.088Z,1.42
2023-10-21T13:12:15.956Z,1.80
2023-10-21T13:14:42.945Z,1.23
2023-10-21T13:17:09.693Z,1.80
2023-10-21T13:19:36.779Z,1.58
2023-10-21T13:22:07.387Z,2.72
2023-10-21T13:24:37.995Z,2.05
2023-10-21T13:27:08.967Z,1.60
2023-10-21T13:29:35.820Z,1.50
2023-10-21T13:32:02.759Z,1.50
2023-10-21T13:34:29.568Z,1.48
2023-10-21T13:36:57.479Z,2.00
2023-10-21T13:39:24.627Z,1.73
2023-10-21T13:41:51.367Z,1.50
2023-10-21T13:44:18.429Z,2.00
2023-10-21T13:46:45.350Z,1.70
2023-10-21T13:49:15.802Z,1.80
2023-10-21T13:51:43.928Z,1.70
2023-10-21T13:54:12.448Z,1.30
2023-10-21T13:56:39.916Z,1.30
2023-10-21T13:59:16.777Z,2.85
2023-10-21T14:01:44.616Z,9.68
2023-10-21T14:04:12.632Z,18.23
2023-10-21T14:06:41.074Z,1.50
2023-10-21T14:09:13.851Z,1.23
2023-10-21T14:11:40.623Z,1.35
2023-10-21T14:14:07.374Z,1.70
2023-10-21T14:16:34.245Z,1.10
2023-10-21T14:19:01.768Z,1.60
2023-10-21T14:21:28.577Z,1.30
2023-10-21T14:23:56.546Z,1.23
2023-10-21T14:26:23.551Z,1.40
2023-10-21T14:28:50.326Z,1.20
2023-10-21T14:31:30.238Z,1.20
2023-10-21T14:33:57.626Z,1.30
2023-10-21T14:36:24.532Z,1.45
2023-10-21T14:38:51.699Z,1.40
2023-10-21T14:41:18.491Z,1.45
2023-10-21T14:43:45.275Z,2.72
2023-10-21T14:46:12.056Z,1.80
2023-10-21T14:48:38.884Z,1.42
2023-10-21T14:51:06.685Z,1.40
2023-10-21T14:53:33.371Z,1.30
2023-10-21T14:56:00.137Z,1.15
2023-10-21T14:58:27.029Z,1.20
2023-10-21T15:00:54.714Z,1.17
2023-10-21T15:03:23.771Z,1.27
2023-10-21T15:05:52.225Z,1.27
2023-10-21T15:08:25.186Z,1.27
2023-10-21T15:10:53.168Z,1.42
2023-10-21T15:13:29.765Z,1.60
2023-10-21T15:16:02.378Z,1.48
2023-10-21T15:18:29.631Z,1.38
2023-10-21T15:21:07.429Z,1.70
2023-10-21T15:23:38.491Z,1.50
2023-10-21T15:26:18.085Z,1.67
2023-10-21T15:28:45.886Z,1.85
2023-10-21T15:31:13.021Z,1.80
2023-10-21T15:33:41.078Z,1.60
2023-10-21T15:36:08.576Z,1.65
2023-10-21T15:38:35.385Z,2.67
2023-10-21T15:41:02.988Z,1.90
2023-10-21T15:43:29.852Z,1.80
2023-10-21T15:46:00.501Z,1.90
2023-10-21T15:48:31.884Z,2.00
2023-10-21T15:51:08.592Z,2.45
2023-10-21T15:53:35.659Z,2.90
2023-10-21T15:56:02.329Z,2.90
2023-10-21T15:58:29.143Z,2.90
2023-10-21T16:00:56.016Z,2.50
2023-10-21T16:03:22.845Z,2.40
2023-10-21T16:05:49.862Z,2.80
2023-10-21T16:08:22.113Z,2.80
2023-10-21T16:10:59.447Z,3.20
2023-10-21T16:13:26.113Z,2.88
2023-10-21T16:15:57.171Z,2.42
2023-10-21T16:18:25.125Z,3.03
2023-10-21T16:20:52.939Z,2.50
2023-10-21T16:23:20.224Z,2.35
2023-10-21T16:25:46.927Z,2.42
2023-10-21T16:28:13.741Z,14.95
2023-10-21T16:30:40.671Z,5.13
2023-10-21T16:33:07.555Z,2.67
2023-10-21T16:35:34.260Z,1.90
2023-10-21T16:38:01.424Z,2.03
2023-10-21T16:40:28.872Z,1.80
2023-10-21T16:42:56.822Z,2.00
2023-10-21T16:45:23.657Z,2.05
2023-10-21T16:47:50.581Z,1.90
2023-10-21T16:50:18.969Z,2.00
2023-10-21T16:52:46.507Z,2.30
2023-10-21T16:55:13.736Z,2.30
2023-10-21T16:57:41.852Z,1.83
2023-10-21T17:00:15.680Z,2.00
2023-10-21T17:02:44.850Z,2.55
2023-10-21T17:05:11.984Z,2.20
2023-10-21T17:07:39.142Z,2.17
2023-10-21T17:10:07.083Z,2.00
2023-10-21T17:12:34.616Z,1.97
2023-10-21T17:15:01.357Z,2.00
2023-10-21T17:17:28.204Z,1.95
2023-10-21T17:19:54.898Z,1.80
2023-10-21T17:22:21.758Z,2.10
2023-10-21T17:24:48.458Z,1.90
2023-10-21T17:27:15.157Z,1.95
2023-10-21T17:29:41.969Z,2.00
2023-10-21T17:32:09.072Z,2.30
2023-10-21T17:34:35.911Z,2.33
2023-10-21T17:37:02.880Z,2.63
2023-10-21T17:39:29.951Z,2.25
2023-10-21T17:41:56.721Z,2.20
2023-10-21T17:44:27.174Z,2.30
2023-10-21T17:46:59.471Z,2.45
2023-10-21T17:49:26.108Z,2.22
2023-10-21T17:51:52.900Z,2.50
2023-10-21T17:54:19.805Z,2.50
2023-10-21T17:56:46.493Z,2.50
2023-10-21T17:59:13.486Z,2.60
2023-10-21T18:01:40.247Z,2.58
2023-10-21T18:04:07.361Z,2.40
2023-10-21T18:06:34.280Z,2.80
2023-10-21T18:09:01.286Z,2.80
2023-10-21T18:11:28.015Z,2.70
2023-10-21T18:13:54.712Z,2.35
2023-10-21T18:16:21.619Z,2.75
2023-10-21T18:18:53.052Z,3.67
2023-10-21T18:21:22.499Z,3.00
2023-10-21T18:23:49.192Z,3.90
2023-10-21T18:26:15.999Z,3.10
2023-10-21T18:28:43.893Z,2.67
2023-10-21T18:31:10.889Z,2.60
2023-10-21T18:33:37.595Z,3.47
2023-10-21T18:36:06.366Z,4.82
2023-10-21T18:40:59.800Z,3.28
2023-10-21T18:43:26.494Z,2.60
2023-10-21T18:45:55.601Z,2.50
2023-10-21T18:48:22.452Z,2.30
2023-10-21T18:51:01.696Z,2.20
2023-10-21T18:53:28.658Z,3.83
2023-10-21T18:55:55.669Z,2.40
2023-10-21T18:58:22.466Z,2.42
2023-10-21T19:00:49.692Z,5.25
2023-10-21T19:03:16.461Z,4.05
2023-10-21T19:05:43.591Z,8.02
2023-10-21T19:08:10.896Z,5.43
2023-10-21T19:10:45.201Z,3.92
2023-10-21T19:13:15.364Z,3.00
2023-10-21T19:15:42.289Z,2.15
2023-10-21T19:18:10.092Z,2.20
2023-10-21T19:20:38.058Z,2.60
2023-10-21T19:23:05.125Z,2.60
2023-10-21T19:25:32.002Z,2.15
2023-10-21T19:27:58.824Z,1.83
2023-10-21T19:30:27.675Z,1.58
2023-10-21T19:35:21.788Z,1.95
2023-10-21T19:37:51.444Z,1.70
2023-10-21T19:40:18.516Z,1.90
2023-10-21T19:42:46.017Z,3.10
2023-10-21T19:45:14.670Z,2.90
2023-10-21T19:47:41.535Z,2.20
2023-10-21T19:50:10.873Z,2.10
2023-10-21T19:52:37.943Z,1.80
2023-10-21T19:55:05.611Z,1.92
2023-10-21T19:57:32.996Z,1.90
2023-10-21T19:59:59.912Z,1.60
2023-10-21T20:02:26.646Z,1.73
2023-10-21T20:04:54.383Z,2.10
2023-10-21T20:07:21.361Z,1.63
2023-10-21T20:09:48.243Z,1.70
2023-10-21T20:12:15.172Z,1.90
2023-10-21T20:14:41.897Z,1.88
2023-10-21T20:17:08.617Z,1.70
2023-10-21T20:19:35.457Z,1.63
2023-10-21T20:22:02.301Z,1.90
2023-10-21T20:24:29.287Z,1.80
2023-10-21T20:26:56.082Z,1.60
2023-10-21T20:29:23.287Z,1.58
2023-10-21T20:31:50.303Z,1.70
2023-10-21T20:34:17.193Z,1.65
2023-10-21T20:36:44.030Z,1.80
2023-10-21T20:39:10.950Z,2.00
2023-10-21T20:41:40.883Z,1.70
2023-10-21T20:44:07.865Z,1.77
2023-10-21T20:46:35.409Z,1.88
2023-10-21T20:49:02.289Z,1.95
2023-10-21T20:51:29.230Z,1.85
2023-10-21T20:53:56.009Z,1.70
2023-10-21T20:56:26.282Z,2.00
2023-10-21T20:58:55.006Z,2.40
2023-10-21T21:01:34.203Z,2.28
2023-10-21T21:04:03.699Z,1.90
2023-10-21T21:06:30.969Z,1.90
2023-10-21T21:08:58.419Z,2.08
2023-10-21T21:11:26.358Z,2.03
2023-10-21T21:13:53.364Z,2.03
2023-10-21T21:16:20.113Z,2.00
2023-10-21T21:18:47.149Z,2.10
2023-10-21T21:21:13.910Z,2.10
2023-10-21T21:23:43.881Z,2.20
2023-10-21T21:26:10.600Z,7.40
2023-10-21T21:28:37.356Z,7.65
2023-10-21T21:31:04.109Z,13.98
2023-10-21T21:33:32.570Z,10.48
2023-10-21T21:36:08.399Z,11.05
2023-10-21T21:38:35.271Z,7.78
2023-10-21T21:41:20.984Z,10.07
2023-10-21T21:43:49.171Z,4.03
2023-10-21T21:46:18.178Z,4.20
2023-10-21T21:48:45.315Z,3.70
2023-10-21T21:51:12.250Z,6.75
2023-10-21T21:53:40.390Z,10.57
2023-10-21T21:56:10.653Z,6.72
2023-10-21T21:58:38.015Z,5.28
2023-10-21T22:01:07.499Z,3.25
2023-10-21T22:03:36.234Z,2.50
2023-10-21T22:08:30.079Z,2.10
2023-10-21T22:10:57.232Z,2.15
2023-10-21T22:13:23.917Z,2.00
2023-10-21T22:15:51.868Z,2.03
2023-10-21T22:18:20.479Z,2.33
2023-10-21T22:20:47.313Z,2.10
2023-10-21T22:23:14.257Z,1.80
2023-10-21T22:25:43.185Z,1.70
2023-10-21T22:28:13.827Z,1.70
2023-10-21T22:30:42.050Z,1.92
2023-10-21T22:33:09.193Z,1.42
2023-10-21T22:35:36.667Z,1.70
2023-10-21T22:38:04.152Z,1.50
2023-10-21T22:40:30.838Z,1.63
2023-10-21T22:42:57.561Z,1.70
2023-10-21T22:45:24.416Z,1.50
2023-10-21T22:47:51.307Z,1.40
2023-10-21T22:50:19.189Z,1.60
2023-10-21T22:52:46.646Z,1.50
2023-10-21T22:55:13.604Z,1.45
2023-10-21T22:57:40.557Z,1.27
2023-10-21T23:00:12.742Z,1.50
2023-10-21T23:02:44.004Z,1.40
2023-10-21T23:05:12.079Z,1.20
2023-10-21T23:07:39.311Z,1.17
2023-10-21T23:10:22.451Z,1.50
2023-10-21T23:12:51.313Z,1.85
2023-10-21T23:17:47.003Z,1.35
2023-10-21T23:20:15.050Z,1.10
2023-10-21T23:22:41.899Z,1.20
2023-10-21T23:25:11.681Z,1.30
2023-10-21T23:27:44.249Z,0.93
2023-10-21T23:30:18.025Z,1.20
2023-10-21T23:32:45.288Z,1.50
2023-10-21T23:35:12.356Z,1.10
2023-10-21T23:37:42.679Z,1.10
2023-10-21T23:40:16.985Z,1.17
2023-10-21T23:42:51.342Z,1.15
2023-10-21T23:45:18.209Z,1.15
2023-10-21T23:47:45.448Z,1.17
2023-10-21T23:50:12.566Z,1.20
2023-10-21T23:52:39.455Z,1.25
2023-10-21T23:55:06.387Z,1.40
2023-10-21T23:57:33.500Z,1.40
